Terminal Aerodrome Forecast
Issued by NWS

Home | Current Version | Previous Version | Text Only | Print | Product List | Glossary On
Versions: 1 2 3 4 5 6 7 8 9 10 11 12 13 14 15 16
916
FTUS43 KDTX 220531
TAFDET
TAF
KDET 220531Z 2206/2306 31012KT P6SM SCT035 BKN050
     FM221600 28010KT P6SM BKN050
     FM222000 24008KT P6SM SCT050
     FM230100 22006KT P6SM BKN250=

USA.gov is the U.S. government's official web portal to all federal, state and local government web resources and services.